Airfield :
LOGIN :

Register | Disclaimer

   EN    FR    IT 

 










Legend :    VFR   Marginal VFR   IFR   Intensive IFR   Very Intensive IFR
Visi :
Ceiling :
>= 8 km
>= 3000ft
5 to 8 km
1000 to 3000 ft
1500m to 5 km
500 to 1000 ft
800 to 1500m
200 to 500 ft
< 800m
< 200 ft
Symbols :   Thunderstorms  Fog  Heavy snow  Heavy precipitations  Wind > 20 kt
SIGMETs :     Misc.  Thunderstorms  Icing  Turbulence  Mountain Waves  Volcanic Ashes






- Airport Elevation : 10 ft
- IATA code : MOL


ENML - Molde

CURRENT METAR :
  • 060450Z 25016KT 9999 -SHRA FEW012 SCT020 BKN034 08/06 Q0991

EXPIRED METARs :
  • 060350Z 26020KT 9999 SHRA FEW012 SCT020 BKN034 09/06 Q0990
  • 060320Z AUTO 24020KT 9999NDV -RA FEW032/// OVC049/// 10/05 Q0989
  • 060250Z AUTO 21016KT 9999NDV SCT056/// BKN072/// 12/04 Q0989
  • 060220Z AUTO 20015KT 9999NDV SCT072/// 12/04 Q0989

Expired Forecast.



MET'MAP, your aeronautical weather chart ! - Copyright ORBIFLY December 2007 - Disclaimer

ORBIFLY MET'MAP TEAM :

Programming & Development : Alexandra Zaïnal
Original concept : Baudouin d'Aumeries
Technical & hardware support : Manuel Goepfert
Assistance : Marc-Olivier Méhu




SOURCES & CREDITS :

   NOAA